createdAt,value
2023-05-22T00:01:45.732Z,100186.29
2023-05-22T00:04:12.312Z,100183.58
2023-05-22T00:06:43.012Z,100180.82
2023-05-22T00:09:09.541Z,100178.45
2023-05-22T00:11:36.109Z,100176.60
2023-05-22T00:14:02.644Z,100179.64
2023-05-22T00:16:29.189Z,100183.63
2023-05-22T00:18:55.843Z,100187.08
2023-05-22T00:21:22.511Z,100187.70
2023-05-22T00:23:49.000Z,100185.48
2023-05-22T00:26:16.291Z,100181.57
2023-05-22T00:28:43.261Z,100178.80
2023-05-22T00:31:09.804Z,100181.98
2023-05-22T00:33:36.427Z,100187.42
2023-05-22T00:36:03.159Z,100185.55
2023-05-22T00:38:31.535Z,100188.11
2023-05-22T00:41:02.287Z,100186.21
2023-05-22T00:43:28.837Z,100185.75
2023-05-22T00:45:55.780Z,100183.49
2023-05-22T00:48:23.057Z,100186.56
2023-05-22T00:50:50.838Z,100195.84
2023-05-22T00:53:20.684Z,100196.76
2023-05-22T00:55:47.998Z,100196.94
2023-05-22T00:58:18.388Z,100195.20
2023-05-22T01:00:45.750Z,100191.19
2023-05-22T01:03:12.814Z,100185.16
2023-05-22T01:05:41.148Z,100183.69
2023-05-22T01:08:08.512Z,100178.46
2023-05-22T01:10:37.743Z,100180.29
2023-05-22T01:13:29.662Z,100179.35
2023-05-22T01:16:06.133Z,100183.05
2023-05-22T01:18:46.220Z,100182.54
2023-05-22T01:21:31.402Z,100182.54
2023-05-22T01:24:13.396Z,100183.48
2023-05-22T01:27:17.472Z,100178.80
2023-05-22T01:29:57.076Z,100178.73
2023-05-22T01:32:25.725Z,100178.13
2023-05-22T01:34:55.468Z,100183.83
2023-05-22T01:37:23.309Z,100186.86
2023-05-22T01:39:51.896Z,100183.02
2023-05-22T01:42:18.724Z,100185.25
2023-05-22T01:44:45.546Z,100180.73
2023-05-22T01:47:12.119Z,100174.28
2023-05-22T01:49:38.900Z,100164.80
2023-05-22T01:52:34.769Z,100159.41
2023-05-22T01:55:09.426Z,100158.23
2023-05-22T01:57:47.787Z,100161.66
2023-05-22T02:00:16.586Z,100155.02
2023-05-22T02:02:48.264Z,100160.84
2023-05-22T02:05:18.161Z,100159.09
2023-05-22T02:07:47.683Z,100155.41
2023-05-22T02:10:16.611Z,100153.91
2023-05-22T02:12:43.959Z,100156.73
2023-05-22T02:15:11.081Z,100159.50
2023-05-22T02:17:38.883Z,100159.07
2023-05-22T02:20:07.141Z,100158.62
2023-05-22T02:22:33.653Z,100156.75
2023-05-22T02:25:00.219Z,100154.15
2023-05-22T02:27:26.706Z,100155.48
2023-05-22T02:29:53.210Z,100153.23
2023-05-22T02:32:19.732Z,100153.27
2023-05-22T02:34:46.249Z,100151.97
2023-05-22T02:37:12.734Z,100153.59
2023-05-22T02:39:39.266Z,100153.30
2023-05-22T02:42:06.308Z,100156.77
2023-05-22T02:44:32.845Z,100155.09
2023-05-22T02:46:59.395Z,100156.58
2023-05-22T02:49:25.943Z,100156.66
2023-05-22T02:51:52.498Z,100154.94
2023-05-22T02:54:19.181Z,100153.93
2023-05-22T02:56:45.730Z,100152.92
2023-05-22T02:59:12.287Z,100157.77
2023-05-22T03:01:38.993Z,100158.34
2023-05-22T03:04:05.911Z,100159.77
2023-05-22T03:06:33.072Z,100154.91
2023-05-22T03:08:59.615Z,100154.19
2023-05-22T03:11:26.130Z,100150.64
2023-05-22T03:13:52.617Z,100149.38
2023-05-22T03:16:19.158Z,100148.96
2023-05-22T03:18:45.751Z,100151.56
2023-05-22T03:21:12.298Z,100147.41
2023-05-22T03:23:38.816Z,100147.95
2023-05-22T03:26:05.346Z,100151.05
2023-05-22T03:28:31.863Z,100152.41
2023-05-22T03:30:58.574Z,100153.96
2023-05-22T03:33:25.135Z,100153.08
2023-05-22T03:35:51.674Z,100144.58
2023-05-22T03:38:18.155Z,100147.19
2023-05-22T03:40:44.660Z,100146.45
2023-05-22T03:43:11.186Z,100147.61
2023-05-22T03:45:37.713Z,100145.50
2023-05-22T03:48:04.373Z,100151.80
2023-05-22T03:50:30.930Z,100148.23
2023-05-22T03:52:57.444Z,100147.99
2023-05-22T03:55:23.932Z,100142.83
2023-05-22T03:57:50.487Z,100141.12
2023-05-22T04:00:17.378Z,100140.69
2023-05-22T04:02:43.993Z,100136.14
2023-05-22T04:05:10.726Z,100139.03
2023-05-22T04:07:37.315Z,100141.39
2023-05-22T04:10:05.238Z,100144.47
2023-05-22T04:12:31.847Z,100144.17
2023-05-22T04:14:58.397Z,100144.06
2023-05-22T04:17:31.057Z,100145.39
2023-05-22T04:19:57.649Z,100147.35
2023-05-22T04:22:24.448Z,100145.29
2023-05-22T04:24:51.001Z,100144.63
2023-05-22T04:27:17.563Z,100140.25
2023-05-22T04:29:44.165Z,100139.92
2023-05-22T04:32:10.942Z,100142.07
2023-05-22T04:34:37.692Z,100142.99
2023-05-22T04:37:05.337Z,100139.31
2023-05-22T04:39:31.907Z,100140.77
2023-05-22T04:41:58.486Z,100145.25
2023-05-22T04:44:25.000Z,100149.38
2023-05-22T04:46:51.591Z,100151.38
2023-05-22T04:49:18.107Z,100150.16
2023-05-22T04:51:44.689Z,100156.95
2023-05-22T04:54:11.254Z,100164.10
2023-05-22T04:56:37.755Z,100165.55
2023-05-22T04:59:04.873Z,100169.61
2023-05-22T05:01:33.205Z,100166.83
2023-05-22T05:04:00.479Z,100161.73
2023-05-22T05:06:27.203Z,100157.75
2023-05-22T05:08:53.705Z,100162.92
2023-05-22T05:11:20.354Z,100167.21
2023-05-22T05:13:46.934Z,100169.92
2023-05-22T05:16:13.503Z,100165.48
2023-05-22T05:18:39.968Z,100164.38
2023-05-22T05:21:06.472Z,100162.86
2023-05-22T05:23:32.935Z,100162.81
2023-05-22T05:25:59.444Z,100162.23
2023-05-22T05:28:25.952Z,100161.83
2023-05-22T05:30:52.492Z,100163.39
2023-05-22T05:33:19.107Z,100167.09
2023-05-22T05:35:45.661Z,100170.75
2023-05-22T05:38:12.238Z,100177.64
2023-05-22T05:40:38.936Z,100177.79
2023-05-22T05:43:07.337Z,100181.06
2023-05-22T05:45:35.633Z,100182.38
2023-05-22T05:48:02.269Z,100182.33
2023-05-22T05:50:28.936Z,100185.71
2023-05-22T05:52:55.508Z,100185.46
2023-05-22T05:55:22.272Z,100183.36
2023-05-22T05:57:48.818Z,100178.57
2023-05-22T06:00:15.525Z,100181.48
2023-05-22T06:02:42.378Z,100181.73
2023-05-22T06:05:09.339Z,100181.39
2023-05-22T06:07:35.899Z,100181.20
2023-05-22T06:10:02.467Z,100182.30
2023-05-22T06:12:29.040Z,100184.73
2023-05-22T06:14:55.530Z,100187.26
2023-05-22T06:17:22.197Z,100184.95
2023-05-22T06:19:48.770Z,100184.35
2023-05-22T06:22:15.303Z,100186.87
2023-05-22T06:24:41.870Z,100182.40
2023-05-22T06:27:08.445Z,100181.61
2023-05-22T06:29:34.969Z,100184.65
2023-05-22T06:32:01.625Z,100184.44
2023-05-22T06:34:28.247Z,100183.85
2023-05-22T06:36:54.904Z,100181.88
2023-05-22T06:39:21.617Z,100180.33
2023-05-22T06:41:48.053Z,100173.10
2023-05-22T06:44:14.581Z,100177.23
2023-05-22T06:46:41.169Z,100182.61
2023-05-22T06:49:07.738Z,100181.69
2023-05-22T06:51:34.233Z,100180.73
2023-05-22T06:54:00.875Z,100178.86
2023-05-22T06:56:27.347Z,100180.63
2023-05-22T06:58:53.922Z,100183.09
2023-05-22T07:01:20.618Z,100184.58
2023-05-22T07:03:47.169Z,100188.51
2023-05-22T07:06:13.836Z,100183.54
2023-05-22T07:08:40.377Z,100181.63
2023-05-22T07:11:06.930Z,100179.50
2023-05-22T07:13:33.687Z,100178.59
2023-05-22T07:16:00.331Z,100181.86
2023-05-22T07:18:26.958Z,100181.20
2023-05-22T07:20:53.586Z,100183.74
2023-05-22T07:23:20.156Z,100187.34
2023-05-22T07:25:46.679Z,100192.00
2023-05-22T07:28:13.202Z,100192.38
2023-05-22T07:30:39.928Z,100194.39
2023-05-22T07:33:06.843Z,100192.64
2023-05-22T07:35:33.509Z,100194.23
2023-05-22T07:38:00.035Z,100189.27
2023-05-22T07:40:27.520Z,100186.38
2023-05-22T07:42:54.131Z,100186.42
2023-05-22T07:45:20.659Z,100184.31
2023-05-22T07:47:47.452Z,100180.23
2023-05-22T07:50:14.029Z,100181.31
2023-05-22T07:52:40.524Z,100183.61
2023-05-22T07:55:07.881Z,100187.66
2023-05-22T07:57:34.451Z,100192.04
2023-05-22T08:00:00.996Z,100194.81
2023-05-22T08:02:27.621Z,100191.08
2023-05-22T08:04:54.232Z,100192.65
2023-05-22T08:07:20.786Z,100193.23
2023-05-22T08:09:47.426Z,100188.24
2023-05-22T08:12:13.946Z,100184.32
2023-05-22T08:14:40.724Z,100184.34
2023-05-22T08:17:07.209Z,100185.52
2023-05-22T08:19:33.912Z,100180.48
2023-05-22T08:22:00.529Z,100179.81
2023-05-22T08:24:27.013Z,100178.65
2023-05-22T08:26:53.617Z,100184.08
2023-05-22T08:29:20.103Z,100184.47
2023-05-22T08:31:46.709Z,100184.00
2023-05-22T08:34:13.208Z,100185.08
2023-05-22T08:36:39.715Z,100183.63
2023-05-22T08:39:06.261Z,100183.90
2023-05-22T08:41:32.883Z,100184.86
2023-05-22T08:43:59.412Z,100182.40
2023-05-22T08:46:26.099Z,100184.45
2023-05-22T08:48:57.243Z,100183.14
2023-05-22T08:51:28.370Z,100174.63
2023-05-22T08:54:00.039Z,100174.00
2023-05-22T08:56:28.660Z,100176.54
2023-05-22T08:58:58.228Z,100176.77
2023-05-22T09:01:25.091Z,100172.83
2023-05-22T09:03:51.796Z,100172.45
2023-05-22T09:06:18.488Z,100173.23
2023-05-22T09:08:45.494Z,100167.95
2023-05-22T09:11:12.023Z,100167.42
2023-05-22T09:13:39.652Z,100167.92
2023-05-22T09:16:11.259Z,100167.16
2023-05-22T09:18:38.684Z,100166.82
2023-05-22T09:21:11.325Z,100168.79
2023-05-22T09:23:49.910Z,100168.01
2023-05-22T09:26:16.452Z,100169.77
2023-05-22T09:28:42.950Z,100169.50
2023-05-22T09:31:09.575Z,100167.05
2023-05-22T09:33:36.473Z,100169.11
2023-05-22T09:36:03.088Z,100167.84
2023-05-22T09:38:30.439Z,100161.16
2023-05-22T09:40:57.416Z,100160.32
2023-05-22T09:43:24.572Z,100160.04
2023-05-22T09:45:57.265Z,100163.12
2023-05-22T09:48:24.216Z,100157.09
2023-05-22T09:50:53.689Z,100156.70
2023-05-22T09:53:25.858Z,100156.19
2023-05-22T09:55:54.086Z,100151.92
2023-05-22T09:58:24.549Z,100149.67
2023-05-22T10:00:51.143Z,100150.36
2023-05-22T10:03:23.425Z,100150.73
2023-05-22T10:05:55.149Z,100149.06
2023-05-22T10:08:24.963Z,100149.00
2023-05-22T10:10:52.467Z,100154.27
2023-05-22T10:13:19.603Z,100147.40
2023-05-22T10:15:47.971Z,100145.65
2023-05-22T10:18:16.022Z,100142.27
2023-05-22T10:20:42.800Z,100141.11
2023-05-22T10:23:10.022Z,100138.30
2023-05-22T10:25:39.853Z,100134.23
2023-05-22T10:28:07.736Z,100134.20
2023-05-22T10:30:40.782Z,100131.89
2023-05-22T10:33:07.683Z,100128.70
2023-05-22T10:35:44.402Z,100123.06
2023-05-22T10:38:38.435Z,100120.62
2023-05-22T10:41:05.388Z,100117.38
2023-05-22T10:43:32.020Z,100116.02
2023-05-22T10:46:07.176Z,100118.52
2023-05-22T10:48:41.297Z,100117.41
2023-05-22T10:51:08.105Z,100115.20
2023-05-22T10:53:36.008Z,100111.83
2023-05-22T10:56:13.890Z,100113.03
2023-05-22T10:58:44.124Z,100104.52
2023-05-22T11:01:11.718Z,100105.09
2023-05-22T11:03:59.119Z,100101.39
2023-05-22T11:06:40.945Z,100100.64
2023-05-22T11:09:33.215Z,100091.42
2023-05-22T11:12:18.218Z,100089.77
2023-05-22T11:14:51.728Z,100083.17
2023-05-22T11:17:22.033Z,100086.84
2023-05-22T11:20:05.178Z,100084.65
2023-05-22T11:22:41.230Z,100075.17
2023-05-22T11:25:15.856Z,100080.05
2023-05-22T11:27:42.548Z,100076.59
2023-05-22T11:30:10.037Z,100075.05
2023-05-22T11:32:41.299Z,100072.60
2023-05-22T11:35:08.503Z,100071.56
2023-05-22T11:37:39.401Z,100070.79
2023-05-22T11:40:07.086Z,100072.01
2023-05-22T11:42:33.709Z,100070.80
2023-05-22T11:45:00.554Z,100067.71
2023-05-22T11:47:28.216Z,100066.42
2023-05-22T11:49:56.449Z,100066.07
2023-05-22T11:52:23.302Z,100063.94
2023-05-22T11:54:52.273Z,100060.59
2023-05-22T11:57:19.359Z,100059.80
2023-05-22T11:59:46.938Z,100061.55
2023-05-22T12:02:13.820Z,100062.34
2023-05-22T12:04:40.356Z,100058.84
2023-05-22T12:07:07.905Z,100059.08
2023-05-22T12:09:34.603Z,100056.05
2023-05-22T12:12:01.440Z,100052.30
2023-05-22T12:14:28.782Z,100046.05
2023-05-22T12:16:57.969Z,100045.27
2023-05-22T12:19:25.950Z,100040.25
2023-05-22T12:21:53.641Z,100037.59
2023-05-22T12:24:20.198Z,100034.96
2023-05-22T12:26:51.060Z,100032.03
2023-05-22T12:29:18.145Z,100030.96
2023-05-22T12:31:45.613Z,100028.65
2023-05-22T12:34:12.508Z,100026.95
2023-05-22T12:36:40.663Z,100024.73
2023-05-22T12:39:11.389Z,100020.45
2023-05-22T12:41:38.699Z,100015.42
2023-05-22T12:44:05.868Z,100013.03
2023-05-22T12:46:33.263Z,100013.39
2023-05-22T12:49:01.218Z,100006.70
2023-05-22T12:51:29.301Z,100002.76
2023-05-22T12:53:56.679Z,99997.79
2023-05-22T12:56:23.494Z,99997.60
2023-05-22T12:58:50.580Z,99994.10
2023-05-22T13:01:17.341Z,99987.21
2023-05-22T13:03:46.405Z,99984.42
2023-05-22T13:06:12.964Z,99984.55
2023-05-22T13:08:39.493Z,99980.30
2023-05-22T13:11:06.052Z,99976.55
2023-05-22T13:13:32.597Z,99966.80
2023-05-22T13:15:59.148Z,99967.14
2023-05-22T13:18:25.729Z,99964.14
2023-05-22T13:20:52.260Z,99963.34
2023-05-22T13:23:18.806Z,99961.98
2023-05-22T13:25:45.524Z,99959.24
2023-05-22T13:28:12.045Z,99957.95
2023-05-22T13:30:38.742Z,99958.50
2023-05-22T13:33:05.573Z,99954.11
2023-05-22T13:35:32.088Z,99952.23
2023-05-22T13:37:58.717Z,99952.13
2023-05-22T13:40:25.416Z,99950.34
2023-05-22T13:42:52.474Z,99948.14
2023-05-22T13:45:19.132Z,99946.52
2023-05-22T13:47:45.687Z,99943.61
2023-05-22T13:50:12.246Z,99941.59
2023-05-22T13:52:38.855Z,99938.79
2023-05-22T13:55:05.791Z,99939.73
2023-05-22T13:57:32.288Z,99942.81
2023-05-22T13:59:58.793Z,99942.05
2023-05-22T14:02:25.333Z,99942.31
2023-05-22T14:04:52.069Z,99940.20
2023-05-22T14:07:18.719Z,99934.95
2023-05-22T14:09:45.427Z,99938.77
2023-05-22T14:12:11.941Z,99933.57
2023-05-22T14:14:38.457Z,99932.20
2023-05-22T14:17:07.804Z,99927.88
2023-05-22T14:19:34.704Z,99924.48
2023-05-22T14:22:01.330Z,99924.04
2023-05-22T14:24:27.854Z,99916.89
2023-05-22T14:26:54.353Z,99915.73
2023-05-22T14:29:21.120Z,99916.63
2023-05-22T14:31:51.425Z,99915.38
2023-05-22T14:34:18.485Z,99916.91
2023-05-22T14:36:44.971Z,99915.59
2023-05-22T14:39:11.530Z,99915.41
2023-05-22T14:41:38.424Z,99916.10
2023-05-22T14:44:05.041Z,99915.94
2023-05-22T14:46:31.614Z,99914.98
2023-05-22T14:48:58.207Z,99913.17
2023-05-22T14:51:24.703Z,99917.10
2023-05-22T14:53:51.228Z,99919.50
2023-05-22T14:56:17.724Z,99918.02
2023-05-22T14:58:44.300Z,99914.77
2023-05-22T15:01:10.847Z,99913.92
2023-05-22T15:03:37.370Z,99916.04
2023-05-22T15:06:04.226Z,99912.08
2023-05-22T15:08:30.716Z,99908.73
2023-05-22T15:10:57.244Z,99905.26
2023-05-22T15:13:23.761Z,99904.16
2023-05-22T15:15:50.295Z,99903.17
2023-05-22T15:18:16.951Z,99901.66
2023-05-22T15:20:43.567Z,99902.96
2023-05-22T15:23:10.083Z,99903.36
2023-05-22T15:25:36.864Z,99901.52
2023-05-22T15:28:04.356Z,99901.07
2023-05-22T15:30:30.996Z,99894.02
2023-05-22T15:32:57.550Z,99889.48
2023-05-22T15:35:24.195Z,99888.36
2023-05-22T15:37:50.724Z,99886.15
2023-05-22T15:40:17.522Z,99887.87
2023-05-22T15:42:44.119Z,99889.05
2023-05-22T15:45:10.739Z,99889.65
2023-05-22T15:47:37.296Z,99889.52
2023-05-22T15:50:04.419Z,99890.08
2023-05-22T15:52:30.927Z,99890.65
2023-05-22T15:54:57.577Z,99889.85
2023-05-22T15:57:24.226Z,99888.77
2023-05-22T15:59:50.972Z,99886.16
2023-05-22T16:02:18.364Z,99883.35
2023-05-22T16:04:44.894Z,99883.85
2023-05-22T16:07:11.831Z,99885.48
2023-05-22T16:09:38.387Z,99885.92
2023-05-22T16:12:05.036Z,99883.87
2023-05-22T16:14:31.728Z,99883.67
2023-05-22T16:16:58.228Z,99883.78
2023-05-22T16:19:24.754Z,99878.29
2023-05-22T16:21:51.298Z,99878.89
2023-05-22T16:24:17.842Z,99879.52
2023-05-22T16:26:44.376Z,99885.62
2023-05-22T16:29:11.042Z,99886.27
2023-05-22T16:31:37.612Z,99884.86
2023-05-22T16:34:05.535Z,99883.87
2023-05-22T16:36:32.092Z,99888.08
2023-05-22T16:38:58.652Z,99889.01
2023-05-22T16:41:25.181Z,99886.76
2023-05-22T16:43:51.713Z,99888.40
2023-05-22T16:46:18.640Z,99887.24
2023-05-22T16:48:45.207Z,99888.88
2023-05-22T16:51:11.758Z,99892.79
2023-05-22T16:53:40.656Z,99893.89
2023-05-22T16:56:07.488Z,99893.39
2023-05-22T16:58:33.942Z,99898.06
2023-05-22T17:01:00.498Z,99901.08
2023-05-22T17:03:27.100Z,99904.06
2023-05-22T17:05:53.863Z,99908.33
2023-05-22T17:08:20.399Z,99910.25
2023-05-22T17:10:46.949Z,99912.98
2023-05-22T17:13:13.514Z,99908.91
2023-05-22T17:15:40.192Z,99909.86
2023-05-22T17:18:06.963Z,99909.90
2023-05-22T17:20:33.570Z,99909.57
2023-05-22T17:23:00.126Z,99903.55
2023-05-22T17:25:26.691Z,99905.42
2023-05-22T17:27:53.160Z,99909.78
2023-05-22T17:30:19.789Z,99912.66
2023-05-22T17:32:46.393Z,99913.86
2023-05-22T17:35:13.187Z,99915.47
2023-05-22T17:37:39.722Z,99921.85
2023-05-22T17:40:06.939Z,99927.45
2023-05-22T17:42:33.499Z,99931.15
2023-05-22T17:45:00.025Z,99941.60
2023-05-22T17:47:26.533Z,99957.40
2023-05-22T17:49:53.266Z,99983.02
2023-05-22T17:52:20.062Z,99987.33
2023-05-22T17:54:46.688Z,99974.27
2023-05-22T17:57:13.197Z,99958.35
2023-05-22T17:59:40.533Z,99954.06
2023-05-22T18:02:08.233Z,99948.30
2023-05-22T18:04:36.046Z,99947.81
2023-05-22T18:07:02.534Z,99952.77
2023-05-22T18:09:29.086Z,99954.86
2023-05-22T18:11:55.606Z,99955.14
2023-05-22T18:14:22.128Z,99949.30
2023-05-22T18:16:48.599Z,99947.58
2023-05-22T18:19:15.220Z,99945.95
2023-05-22T18:21:41.853Z,99948.84
2023-05-22T18:24:08.638Z,99952.54
2023-05-22T18:26:35.208Z,99953.30
2023-05-22T18:29:01.724Z,99948.61
2023-05-22T18:31:28.314Z,99950.23
2023-05-22T18:33:54.960Z,99950.18
2023-05-22T18:36:21.618Z,99949.31
2023-05-22T18:38:48.229Z,99954.40
2023-05-22T18:41:14.795Z,99954.58
2023-05-22T18:43:41.373Z,99959.73
2023-05-22T18:46:08.074Z,99959.02
2023-05-22T18:48:34.656Z,99962.55
2023-05-22T18:51:01.368Z,99967.23
2023-05-22T18:53:27.931Z,99971.05
2023-05-22T18:55:54.530Z,99973.95
2023-05-22T18:58:21.146Z,99968.19
2023-05-22T19:00:48.355Z,99964.41
2023-05-22T19:03:14.985Z,99972.11
2023-05-22T19:05:41.644Z,99971.64
2023-05-22T19:08:08.324Z,99977.16
2023-05-22T19:10:34.912Z,99980.38
2023-05-22T19:13:01.458Z,99979.93
2023-05-22T19:15:28.290Z,99976.79
2023-05-22T19:17:54.963Z,99978.77
2023-05-22T19:20:22.976Z,99979.02
2023-05-22T19:22:49.590Z,99984.46
2023-05-22T19:25:16.062Z,99986.85
2023-05-22T19:27:42.579Z,99986.33
2023-05-22T19:30:09.407Z,99993.71
2023-05-22T19:32:36.013Z,99997.99
2023-05-22T19:35:02.552Z,100002.36
2023-05-22T19:37:29.256Z,100007.52
2023-05-22T19:39:55.918Z,100006.05
2023-05-22T19:42:22.496Z,100006.98
2023-05-22T19:44:48.984Z,100005.99
2023-05-22T19:47:15.496Z,100006.58
2023-05-22T19:49:42.020Z,100006.95
2023-05-22T19:52:08.542Z,100004.48
2023-05-22T19:54:35.237Z,100007.05
2023-05-22T19:57:02.913Z,100003.98
2023-05-22T19:59:29.495Z,100001.08
2023-05-22T20:01:56.103Z,100000.07
2023-05-22T20:04:22.667Z,99996.55
2023-05-22T20:06:49.216Z,99997.10
2023-05-22T20:09:15.837Z,99998.83
2023-05-22T20:11:42.469Z,99995.35
2023-05-22T20:14:09.028Z,99993.41
2023-05-22T20:16:35.728Z,99993.63
2023-05-22T20:19:02.324Z,99992.92
2023-05-22T20:21:28.866Z,99992.89
2023-05-22T20:23:55.379Z,99993.27
2023-05-22T20:26:21.938Z,99991.52
2023-05-22T20:28:48.492Z,99991.25
2023-05-22T20:31:15.158Z,99988.38
2023-05-22T20:33:41.681Z,99989.87
2023-05-22T20:36:08.382Z,99984.17
2023-05-22T20:38:35.021Z,99983.52
2023-05-22T20:41:02.749Z,99984.65
2023-05-22T20:43:29.292Z,99984.31
2023-05-22T20:45:57.465Z,99980.37
2023-05-22T20:48:24.057Z,99979.19
2023-05-22T20:50:50.785Z,99980.44
2023-05-22T20:53:17.554Z,99983.80
2023-05-22T20:55:44.190Z,99987.74
2023-05-22T20:58:11.047Z,99990.61
2023-05-22T21:00:37.615Z,99989.23
2023-05-22T21:03:04.617Z,99984.68
2023-05-22T21:05:31.285Z,99982.41
2023-05-22T21:07:57.875Z,99981.56
2023-05-22T21:10:24.409Z,99983.15
2023-05-22T21:12:50.924Z,99985.68
2023-05-22T21:15:17.606Z,99987.27
2023-05-22T21:17:44.270Z,99989.36
2023-05-22T21:20:11.304Z,99988.12
2023-05-22T21:22:37.902Z,99986.11
2023-05-22T21:25:04.844Z,99984.63
2023-05-22T21:27:31.376Z,99982.40
2023-05-22T21:29:57.921Z,99981.25
2023-05-22T21:32:24.485Z,99984.05
2023-05-22T21:34:51.044Z,99983.76
2023-05-22T21:37:17.670Z,99982.22
2023-05-22T21:39:44.231Z,99980.55
2023-05-22T21:42:10.779Z,99983.41
2023-05-22T21:44:37.706Z,99986.41
2023-05-22T21:47:04.466Z,99984.70
2023-05-22T21:49:31.004Z,99987.45
2023-05-22T21:51:57.531Z,99990.52
2023-05-22T21:54:24.064Z,99993.62
2023-05-22T21:56:50.652Z,99990.10
2023-05-22T21:59:17.220Z,99999.86
2023-05-22T22:01:43.866Z,100001.41
2023-05-22T22:04:10.509Z,99999.63
2023-05-22T22:06:37.130Z,99997.80
2023-05-22T22:09:03.810Z,99998.39
2023-05-22T22:11:30.386Z,99997.37
2023-05-22T22:13:56.996Z,99994.08
2023-05-22T22:16:23.575Z,99994.45
2023-05-22T22:18:50.280Z,99991.23
2023-05-22T22:21:17.420Z,99990.13
2023-05-22T22:23:43.946Z,99991.64
2023-05-22T22:26:10.504Z,99994.52
2023-05-22T22:28:37.112Z,99994.77
2023-05-22T22:31:03.774Z,99989.17
2023-05-22T22:33:30.270Z,99988.16
2023-05-22T22:35:56.802Z,99988.90
2023-05-22T22:38:23.310Z,99987.00
2023-05-22T22:40:49.806Z,99986.33
2023-05-22T22:43:16.419Z,99990.54
2023-05-22T22:45:43.103Z,99989.09
2023-05-22T22:48:09.837Z,99980.87
2023-05-22T22:50:36.468Z,99978.09
2023-05-22T22:53:03.006Z,99978.34
2023-05-22T22:55:29.654Z,99977.92
2023-05-22T22:57:56.334Z,99979.45
2023-05-22T23:00:22.860Z,99984.68
2023-05-22T23:02:49.509Z,99984.98
2023-05-22T23:05:16.063Z,99984.70
2023-05-22T23:07:42.832Z,99982.63
2023-05-22T23:10:09.737Z,99976.46
2023-05-22T23:12:36.365Z,99974.63
2023-05-22T23:15:03.467Z,99972.42
2023-05-22T23:17:30.035Z,99968.04
2023-05-22T23:19:56.699Z,99967.59
2023-05-22T23:22:23.455Z,99967.24
2023-05-22T23:24:50.093Z,99968.69
2023-05-22T23:27:16.606Z,99963.00
2023-05-22T23:29:43.130Z,99966.66
2023-05-22T23:32:10.470Z,99967.43
2023-05-22T23:34:37.897Z,99967.94
2023-05-22T23:37:04.662Z,99972.88
2023-05-22T23:39:31.193Z,99971.30
2023-05-22T23:41:58.207Z,99970.75
2023-05-22T23:44:24.709Z,99971.27
2023-05-22T23:46:51.397Z,99972.52
2023-05-22T23:49:17.994Z,99969.75
2023-05-22T23:51:44.517Z,99971.21
2023-05-22T23:54:11.050Z,99975.30
2023-05-22T23:56:37.685Z,99975.70
2023-05-22T23:59:04.535Z,99981.55
